sensor_id;sensor_type;location;lat;lon;timestamp;pressure;altitude;pressure_sealevel;temperature;humidity
34177;BME280;20450;49.074;9.158;2023-01-28T00:02:00;100491.19;;;2.54;73.26
34177;BME280;20450;49.074;9.158;2023-01-28T00:04:27;100500.84;;;2.55;72.78
34177;BME280;20450;49.074;9.158;2023-01-28T00:06:55;100504.81;;;2.51;73.54
34177;BME280;20450;49.074;9.158;2023-01-28T00:09:23;100503.13;;;2.41;73.54
34177;BME280;20450;49.074;9.158;2023-01-28T00:11:50;100497.22;;;2.47;73.79
34177;BME280;20450;49.074;9.158;2023-01-28T00:14:17;100494.72;;;2.45;73.38
34177;BME280;20450;49.074;9.158;2023-01-28T00:16:43;100497.75;;;2.50;73.83
34177;BME280;20450;49.074;9.158;2023-01-28T00:19:10;100479.81;;;2.52;73.57
34177;BME280;20450;49.074;9.158;2023-01-28T00:21:37;100482.19;;;2.55;73.87
34177;BME280;20450;49.074;9.158;2023-01-28T00:24:06;100483.75;;;2.39;73.60
34177;BME280;20450;49.074;9.158;2023-01-28T00:26:34;100491.34;;;2.34;74.34
34177;BME280;20450;49.074;9.158;2023-01-28T00:29:02;100494.72;;;2.45;74.51
34177;BME280;20450;49.074;9.158;2023-01-28T00:31:29;100489.91;;;2.49;74.27
34177;BME280;20450;49.074;9.158;2023-01-28T00:33:56;100494.97;;;2.52;74.51
34177;BME280;20450;49.074;9.158;2023-01-28T00:36:24;100485.72;;;2.56;75.11
34177;BME280;20450;49.074;9.158;2023-01-28T00:38:53;100483.56;;;2.59;74.88
34177;BME280;20450;49.074;9.158;2023-01-28T00:41:24;100484.44;;;2.60;74.85
34177;BME280;20450;49.074;9.158;2023-01-28T00:43:53;100487.94;;;2.60;75.24
34177;BME280;20450;49.074;9.158;2023-01-28T00:46:21;100488.22;;;2.57;75.02
34177;BME280;20450;49.074;9.158;2023-01-28T00:48:48;100488.91;;;2.59;74.78
34177;BME280;20450;49.074;9.158;2023-01-28T00:51:17;100486.44;;;2.48;75.08
34177;BME280;20450;49.074;9.158;2023-01-28T00:53:45;100484.88;;;2.46;75.28
34177;BME280;20450;49.074;9.158;2023-01-28T00:56:14;100482.19;;;2.46;75.79
34177;BME280;20450;49.074;9.158;2023-01-28T00:58:44;100487.00;;;2.42;76.07
34177;BME280;20450;49.074;9.158;2023-01-28T01:01:13;100480.38;;;2.46;76.01
34177;BME280;20450;49.074;9.158;2023-01-28T01:03:41;100485.00;;;2.44;76.12
34177;BME280;20450;49.074;9.158;2023-01-28T01:06:10;100478.28;;;2.50;75.91
34177;BME280;20450;49.074;9.158;2023-01-28T01:08:38;100479.09;;;2.50;75.95
34177;BME280;20450;49.074;9.158;2023-01-28T01:11:06;100487.38;;;2.47;75.99
34177;BME280;20450;49.074;9.158;2023-01-28T01:13:35;100482.47;;;2.52;75.90
34177;BME280;20450;49.074;9.158;2023-01-28T01:16:06;100475.34;;;2.53;75.68
34177;BME280;20450;49.074;9.158;2023-01-28T01:18:35;100481.19;;;2.56;76.02
34177;BME280;20450;49.074;9.158;2023-01-28T01:21:06;100483.72;;;2.58;75.88
34177;BME280;20450;49.074;9.158;2023-01-28T01:23:34;100488.22;;;2.57;75.94
34177;BME280;20450;49.074;9.158;2023-01-28T01:26:02;100487.38;;;2.57;76.14
34177;BME280;20450;49.074;9.158;2023-01-28T01:28:29;100485.13;;;2.62;76.11
34177;BME280;20450;49.074;9.158;2023-01-28T01:30:59;100481.91;;;2.58;75.80
34177;BME280;20450;49.074;9.158;2023-01-28T01:33:30;100491.56;;;2.59;76.36
34177;BME280;20450;49.074;9.158;2023-01-28T01:35:58;100494.94;;;2.61;76.16
34177;BME280;20450;49.074;9.158;2023-01-28T01:38:26;100495.38;;;2.66;75.63
34177;BME280;20450;49.074;9.158;2023-01-28T01:40:56;100496.06;;;2.68;75.92
34177;BME280;20450;49.074;9.158;2023-01-28T01:43:23;100490.44;;;2.71;75.69
34177;BME280;20450;49.074;9.158;2023-01-28T01:45:53;100493.25;;;2.70;75.71
34177;BME280;20450;49.074;9.158;2023-01-28T01:48:29;100488.75;;;2.70;75.21
34177;BME280;20450;49.074;9.158;2023-01-28T01:51:01;100492.28;;;2.71;75.60
34177;BME280;20450;49.074;9.158;2023-01-28T01:53:31;100488.47;;;2.73;75.72
34177;BME280;20450;49.074;9.158;2023-01-28T01:56:01;100485.81;;;2.73;75.65
34177;BME280;20450;49.074;9.158;2023-01-28T01:58:34;100487.09;;;2.69;75.23
34177;BME280;20450;49.074;9.158;2023-01-28T02:01:06;100497.75;;;2.60;75.39
34177;BME280;20450;49.074;9.158;2023-01-28T02:03:39;100501.84;;;2.54;75.63
34177;BME280;20450;49.074;9.158;2023-01-28T02:06:12;100503.13;;;2.41;76.59
34177;BME280;20450;49.074;9.158;2023-01-28T02:08:43;100504.53;;;2.35;76.80
34177;BME280;20450;49.074;9.158;2023-01-28T02:11:12;100508.47;;;2.31;77.55
34177;BME280;20450;49.074;9.158;2023-01-28T02:13:43;100503.00;;;2.23;77.34
34177;BME280;20450;49.074;9.158;2023-01-28T02:16:16;100498.66;;;2.22;77.35
34177;BME280;20450;49.074;9.158;2023-01-28T02:18:45;100501.47;;;2.30;77.19
34177;BME280;20450;49.074;9.158;2023-01-28T02:21:29;100500.03;;;2.36;77.26
34177;BME280;20450;49.074;9.158;2023-01-28T02:24:40;100495.13;;;2.41;77.03
34177;BME280;20450;49.074;9.158;2023-01-28T02:27:26;100502.56;;;2.37;77.10
34177;BME280;20450;49.074;9.158;2023-01-28T02:30:06;100499.34;;;2.34;77.32
34177;BME280;20450;49.074;9.158;2023-01-28T02:32:43;100505.66;;;2.33;77.51
34177;BME280;20450;49.074;9.158;2023-01-28T02:35:26;100503.56;;;2.36;77.91
34177;BME280;20450;49.074;9.158;2023-01-28T02:38:01;100501.72;;;2.46;77.95
34177;BME280;20450;49.074;9.158;2023-01-28T02:40:36;100506.91;;;2.57;77.94
34177;BME280;20450;49.074;9.158;2023-01-28T02:43:07;100491.28;;;2.62;77.31
34177;BME280;20450;49.074;9.158;2023-01-28T02:45:35;100496.91;;;2.69;77.12
34177;BME280;20450;49.074;9.158;2023-01-28T02:48:02;100506.28;;;2.73;76.94
34177;BME280;20450;49.074;9.158;2023-01-28T02:50:34;100503.47;;;2.74;77.22
34177;BME280;20450;49.074;9.158;2023-01-28T02:53:17;100513.72;;;2.79;76.74
34177;BME280;20450;49.074;9.158;2023-01-28T02:55:53;100509.22;;;2.79;76.66
34177;BME280;20450;49.074;9.158;2023-01-28T02:58:34;100508.94;;;2.82;76.86
34177;BME280;20450;49.074;9.158;2023-01-28T03:01:14;100511.31;;;2.85;76.72
34177;BME280;20450;49.074;9.158;2023-01-28T03:03:57;100518.03;;;2.89;76.68
34177;BME280;20450;49.074;9.158;2023-01-28T03:06:31;100511.31;;;2.85;76.79
34177;BME280;20450;49.074;9.158;2023-01-28T03:09:05;100515.66;;;2.86;76.48
34177;BME280;20450;49.074;9.158;2023-01-28T03:11:38;100514.56;;;2.79;76.82
34177;BME280;20450;49.074;9.158;2023-01-28T03:14:09;100514.84;;;2.76;77.16
34177;BME280;20450;49.074;9.158;2023-01-28T03:16:39;100516.38;;;2.79;77.33
34177;BME280;20450;49.074;9.158;2023-01-28T03:19:07;100506.72;;;2.78;77.25
34177;BME280;20450;49.074;9.158;2023-01-28T03:21:40;100512.44;;;2.83;77.03
34177;BME280;20450;49.074;9.158;2023-01-28T03:24:13;100519.31;;;2.85;76.70
34177;BME280;20450;49.074;9.158;2023-01-28T03:26:50;100516.09;;;2.91;76.51
34177;BME280;20450;49.074;9.158;2023-01-28T03:29:25;100529.94;;;2.95;76.75
34177;BME280;20450;49.074;9.158;2023-01-28T03:31:58;100518.75;;;2.91;76.52
34177;BME280;20450;49.074;9.158;2023-01-28T03:34:27;100524.91;;;2.92;76.95
34177;BME280;20450;49.074;9.158;2023-01-28T03:36:54;100527.44;;;2.93;76.62
34177;BME280;20450;49.074;9.158;2023-01-28T03:39:54;100528.28;;;2.94;76.74
34177;BME280;20450;49.074;9.158;2023-01-28T03:42:21;100523.09;;;2.92;77.09
34177;BME280;20450;49.074;9.158;2023-01-28T03:45:03;100526.47;;;2.94;76.92
34177;BME280;20450;49.074;9.158;2023-01-28T03:47:32;100514.78;;;2.95;76.78
34177;BME280;20450;49.074;9.158;2023-01-28T03:50:02;100521.13;;;2.94;77.14
34177;BME280;20450;49.074;9.158;2023-01-28T03:52:35;100530.53;;;2.98;77.07
34177;BME280;20450;49.074;9.158;2023-01-28T03:55:15;100524.19;;;2.99;77.30
34177;BME280;20450;49.074;9.158;2023-01-28T03:57:42;100536.41;;;3.02;77.41
34177;BME280;20450;49.074;9.158;2023-01-28T04:00:15;100540.19;;;2.99;78.00
34177;BME280;20450;49.074;9.158;2023-01-28T04:02:55;100540.47;;;2.96;78.01
34177;BME280;20450;49.074;9.158;2023-01-28T04:05:23;100540.09;;;2.91;78.86
34177;BME280;20450;49.074;9.158;2023-01-28T04:07:53;100538.25;;;2.92;79.05
34177;BME280;20450;49.074;9.158;2023-01-28T04:10:33;100550.06;;;2.89;79.02
34177;BME280;20450;49.074;9.158;2023-01-28T04:13:08;100553.00;;;2.86;79.86
34177;BME280;20450;49.074;9.158;2023-01-28T04:15:38;100551.34;;;2.85;80.91
34177;BME280;20450;49.074;9.158;2023-01-28T04:18:06;100548.25;;;2.80;81.76
34177;BME280;20450;49.074;9.158;2023-01-28T04:20:33;100544.47;;;2.73;82.36
34177;BME280;20450;49.074;9.158;2023-01-28T04:23:00;100556.16;;;2.72;82.44
34177;BME280;20450;49.074;9.158;2023-01-28T04:25:28;100557.13;;;2.71;82.76
34177;BME280;20450;49.074;9.158;2023-01-28T04:27:55;100558.81;;;2.72;83.29
34177;BME280;20450;49.074;9.158;2023-01-28T04:30:25;100561.06;;;2.67;83.55
34177;BME280;20450;49.074;9.158;2023-01-28T04:33:22;100556.28;;;2.61;84.33
34177;BME280;20450;49.074;9.158;2023-01-28T04:35:49;100557.00;;;2.44;84.58
34177;BME280;20450;49.074;9.158;2023-01-28T04:38:23;100559.81;;;2.33;85.25
34177;BME280;20450;49.074;9.158;2023-01-28T04:41:04;100566.16;;;2.32;85.73
34177;BME280;20450;49.074;9.158;2023-01-28T04:43:33;100569.66;;;2.23;85.93
34177;BME280;20450;49.074;9.158;2023-01-28T04:46:26;100563.31;;;2.24;86.81
34177;BME280;20450;49.074;9.158;2023-01-28T04:49:21;100562.91;;;2.29;86.91
34177;BME280;20450;49.074;9.158;2023-01-28T04:52:11;100558.16;;;2.32;86.84
34177;BME280;20450;49.074;9.158;2023-01-28T04:54:55;100570.19;;;2.36;86.79
34177;BME280;20450;49.074;9.158;2023-01-28T04:57:22;100572.59;;;2.39;86.46
34177;BME280;20450;49.074;9.158;2023-01-28T04:59:50;100573.28;;;2.41;86.61
34177;BME280;20450;49.074;9.158;2023-01-28T05:02:17;100576.66;;;2.43;86.44
34177;BME280;20450;49.074;9.158;2023-01-28T05:04:47;100576.50;;;2.45;86.78
34177;BME280;20450;49.074;9.158;2023-01-28T05:07:33;100574.69;;;2.45;86.60
34177;BME280;20450;49.074;9.158;2023-01-28T05:10:00;100574.69;;;2.45;86.86
34177;BME280;20450;49.074;9.158;2023-01-28T05:12:28;100571.88;;;2.47;86.77
34177;BME280;20450;49.074;9.158;2023-01-28T05:14:55;100577.50;;;2.44;86.45
34177;BME280;20450;49.074;9.158;2023-01-28T05:17:22;100586.75;;;2.40;86.58
34177;BME280;20450;49.074;9.158;2023-01-28T05:19:51;100577.06;;;2.39;87.11
34177;BME280;20450;49.074;9.158;2023-01-28T05:22:21;100586.88;;;2.38;87.36
34177;BME280;20450;49.074;9.158;2023-01-28T05:25:08;100588.56;;;2.30;87.41
34177;BME280;20450;49.074;9.158;2023-01-28T05:27:35;100583.66;;;2.25;87.56
34177;BME280;20450;49.074;9.158;2023-01-28T05:30:03;100581.97;;;2.24;87.71
34177;BME280;20450;49.074;9.158;2023-01-28T05:32:31;100589.97;;;2.24;87.87
34177;BME280;20450;49.074;9.158;2023-01-28T05:34:59;100587.72;;;2.20;87.71
34177;BME280;20450;49.074;9.158;2023-01-28T05:37:26;100584.75;;;2.03;88.41
34177;BME280;20450;49.074;9.158;2023-01-28T05:39:55;100579.84;;;2.08;88.85
34177;BME280;20450;49.074;9.158;2023-01-28T05:42:22;100581.97;;;2.15;89.03
34177;BME280;20450;49.074;9.158;2023-01-28T05:44:54;100590.22;;;2.02;89.28
34177;BME280;20450;49.074;9.158;2023-01-28T05:47:39;100591.78;;;2.04;89.48
34177;BME280;20450;49.074;9.158;2023-01-28T05:50:23;100592.00;;;1.92;89.51
34177;BME280;20450;49.074;9.158;2023-01-28T05:53:09;100586.97;;;1.79;90.04
34177;BME280;20450;49.074;9.158;2023-01-28T05:55:38;100593.28;;;1.88;90.34
34177;BME280;20450;49.074;9.158;2023-01-28T05:58:05;100592.88;;;1.92;90.70
34177;BME280;20450;49.074;9.158;2023-01-28T06:00:33;100597.66;;;1.98;90.16
34177;BME280;20450;49.074;9.158;2023-01-28T06:03:02;100597.09;;;2.04;90.26
34177;BME280;20450;49.074;9.158;2023-01-28T06:05:32;100598.22;;;2.12;90.12
34177;BME280;20450;49.074;9.158;2023-01-28T06:07:59;100605.53;;;2.19;89.54
34177;BME280;20450;49.074;9.158;2023-01-28T06:10:26;100610.59;;;2.22;89.65
34177;BME280;20450;49.074;9.158;2023-01-28T06:12:54;100620.97;;;2.25;89.13
34177;BME280;20450;49.074;9.158;2023-01-28T06:15:30;100611.03;;;2.27;88.79
34177;BME280;20450;49.074;9.158;2023-01-28T06:18:04;100621.69;;;2.27;88.98
34177;BME280;20450;49.074;9.158;2023-01-28T06:20:34;100612.84;;;2.27;89.23
34177;BME280;20450;49.074;9.158;2023-01-28T06:23:01;100623.09;;;2.22;88.89
34177;BME280;20450;49.074;9.158;2023-01-28T06:25:28;100624.91;;;2.21;89.02
34177;BME280;20450;49.074;9.158;2023-01-28T06:27:59;100631.63;;;2.25;89.43
34177;BME280;20450;49.074;9.158;2023-01-28T06:30:26;100633.47;;;2.25;88.92
34177;BME280;20450;49.074;9.158;2023-01-28T06:32:53;100636.81;;;2.27;88.91
34177;BME280;20450;49.074;9.158;2023-01-28T06:35:20;100635.28;;;2.24;88.83
34177;BME280;20450;49.074;9.158;2023-01-28T06:37:49;100647.22;;;2.20;88.61
34177;BME280;20450;49.074;9.158;2023-01-28T06:40:18;100649.00;;;2.10;89.22
34177;BME280;20450;49.074;9.158;2023-01-28T06:42:45;100644.94;;;2.06;89.40
34177;BME280;20450;49.074;9.158;2023-01-28T06:45:12;100642.81;;;2.00;89.80
34177;BME280;20450;49.074;9.158;2023-01-28T06:47:39;100650.34;;;1.95;90.25
34177;BME280;20450;49.074;9.158;2023-01-28T06:50:07;100653.06;;;2.04;90.41
34177;BME280;20450;49.074;9.158;2023-01-28T06:52:34;100653.22;;;2.13;90.35
34177;BME280;20450;49.074;9.158;2023-01-28T06:55:03;100653.38;;;2.21;89.92
34177;BME280;20450;49.074;9.158;2023-01-28T06:57:30;100648.63;;;2.24;89.59
34177;BME280;20450;49.074;9.158;2023-01-28T06:59:57;100654.78;;;2.34;89.60
34177;BME280;20450;49.074;9.158;2023-01-28T07:02:24;100662.00;;;2.53;90.57
34177;BME280;20450;49.074;9.158;2023-01-28T07:04:53;100659.88;;;2.66;91.08
34177;BME280;20450;49.074;9.158;2023-01-28T07:07:20;100667.91;;;2.75;89.97
34177;BME280;20450;49.074;9.158;2023-01-28T07:09:47;100671.25;;;2.77;88.89
34177;BME280;20450;49.074;9.158;2023-01-28T07:12:15;100667.19;;;2.73;87.35
34177;BME280;20450;49.074;9.158;2023-01-28T07:14:42;100663.69;;;2.63;87.68
34177;BME280;20450;49.074;9.158;2023-01-28T07:17:08;100669.28;;;2.60;87.23
34177;BME280;20450;49.074;9.158;2023-01-28T07:19:36;100668.44;;;2.60;87.60
34177;BME280;20450;49.074;9.158;2023-01-28T07:22:02;100681.63;;;2.61;87.33
34177;BME280;20450;49.074;9.158;2023-01-28T07:24:30;100676.31;;;2.61;87.40
34177;BME280;20450;49.074;9.158;2023-01-28T07:26:58;100680.66;;;2.62;87.36
34177;BME280;20450;49.074;9.158;2023-01-28T07:29:27;100684.16;;;2.63;87.22
34177;BME280;20450;49.074;9.158;2023-01-28T07:31:54;100685.31;;;2.60;87.34
34177;BME280;20450;49.074;9.158;2023-01-28T07:34:20;100679.13;;;2.60;87.61
34177;BME280;20450;49.074;9.158;2023-01-28T07:36:47;100685.84;;;2.64;88.03
34177;BME280;20450;49.074;9.158;2023-01-28T07:39:14;100682.34;;;2.63;87.82
34177;BME280;20450;49.074;9.158;2023-01-28T07:41:41;100685.03;;;2.63;87.87
34177;BME280;20450;49.074;9.158;2023-01-28T07:44:09;100687.81;;;2.62;88.11
34177;BME280;20450;49.074;9.158;2023-01-28T07:46:38;100685.16;;;2.62;87.95
34177;BME280;20450;49.074;9.158;2023-01-28T07:49:04;100692.88;;;2.65;88.09
34177;BME280;20450;49.074;9.158;2023-01-28T07:51:31;100697.94;;;2.68;87.77
34177;BME280;20450;49.074;9.158;2023-01-28T07:53:58;100692.88;;;2.74;87.70
34177;BME280;20450;49.074;9.158;2023-01-28T07:56:25;100691.78;;;2.77;87.89
34177;BME280;20450;49.074;9.158;2023-01-28T07:58:52;100695.41;;;2.85;88.46
34177;BME280;20450;49.074;9.158;2023-01-28T08:01:19;100700.59;;;2.96;88.16
34177;BME280;20450;49.074;9.158;2023-01-28T08:03:47;100699.88;;;3.04;87.63
34177;BME280;20450;49.074;9.158;2023-01-28T08:06:14;100702.56;;;3.13;87.86
34177;BME280;20450;49.074;9.158;2023-01-28T08:08:41;100703.28;;;3.15;87.17
34177;BME280;20450;49.074;9.158;2023-01-28T08:11:08;100692.88;;;3.12;86.35
34177;BME280;20450;49.074;9.158;2023-01-28T08:13:36;100698.09;;;3.14;86.21
34177;BME280;20450;49.074;9.158;2023-01-28T08:16:03;100701.72;;;3.13;86.03
34177;BME280;20450;49.074;9.158;2023-01-28T08:18:30;100702.56;;;3.13;86.07
34177;BME280;20450;49.074;9.158;2023-01-28T08:20:59;100709.56;;;3.14;85.81
34177;BME280;20450;49.074;9.158;2023-01-28T08:23:26;100714.91;;;3.14;85.56
34177;BME280;20450;49.074;9.158;2023-01-28T08:25:53;100713.97;;;3.15;85.26
34177;BME280;20450;49.074;9.158;2023-01-28T08:28:21;100715.19;;;3.11;85.60
34177;BME280;20450;49.074;9.158;2023-01-28T08:30:48;100716.91;;;3.12;86.06
34177;BME280;20450;49.074;9.158;2023-01-28T08:33:16;100710.84;;;3.10;85.85
34177;BME280;20450;49.074;9.158;2023-01-28T08:35:45;100716.19;;;3.10;86.02
34177;BME280;20450;49.074;9.158;2023-01-28T08:38:14;100716.47;;;3.17;86.35
34177;BME280;20450;49.074;9.158;2023-01-28T08:40:41;100720.25;;;3.24;86.24
34177;BME280;20450;49.074;9.158;2023-01-28T08:43:08;100719.25;;;3.25;85.72
34177;BME280;20450;49.074;9.158;2023-01-28T08:45:35;100721.78;;;3.26;85.57
34177;BME280;20450;49.074;9.158;2023-01-28T08:48:03;100721.66;;;3.28;85.33
34177;BME280;20450;49.074;9.158;2023-01-28T08:50:33;100721.78;;;3.26;84.87
34177;BME280;20450;49.074;9.158;2023-01-28T08:53:03;100726.84;;;3.29;85.29
34177;BME280;20450;49.074;9.158;2023-01-28T08:55:33;100726.31;;;3.26;84.87
34177;BME280;20450;49.074;9.158;2023-01-28T08:58:01;100728.28;;;3.24;85.21
34177;BME280;20450;49.074;9.158;2023-01-28T09:00:29;100727.13;;;3.26;85.31
34177;BME280;20450;49.074;9.158;2023-01-28T09:02:57;100728.97;;;3.26;84.98
34177;BME280;20450;49.074;9.158;2023-01-28T09:05:23;100731.47;;;3.27;84.91
34177;BME280;20450;49.074;9.158;2023-01-28T09:07:50;100728.81;;;3.27;85.29
34177;BME280;20450;49.074;9.158;2023-01-28T09:10:17;100735.28;;;3.34;85.08
34177;BME280;20450;49.074;9.158;2023-01-28T09:12:46;100736.81;;;3.37;84.90
34177;BME280;20450;49.074;9.158;2023-01-28T09:15:13;100732.47;;;3.36;83.88
34177;BME280;20450;49.074;9.158;2023-01-28T09:17:39;100738.63;;;3.36;84.29
34177;BME280;20450;49.074;9.158;2023-01-28T09:20:07;100742.88;;;3.39;84.42
34177;BME280;20450;49.074;9.158;2023-01-28T09:22:35;100746.38;;;3.39;83.48
34177;BME280;20450;49.074;9.158;2023-01-28T09:25:02;100749.31;;;3.36;83.69
34177;BME280;20450;49.074;9.158;2023-01-28T09:27:30;100752.28;;;3.33;84.53
34177;BME280;20450;49.074;9.158;2023-01-28T09:29:58;100750.16;;;3.37;83.75
34177;BME280;20450;49.074;9.158;2023-01-28T09:32:25;100752.41;;;3.32;83.53
34177;BME280;20450;49.074;9.158;2023-01-28T09:34:52;100759.47;;;3.33;82.94
34177;BME280;20450;49.074;9.158;2023-01-28T09:37:19;100762.81;;;3.35;82.86
34177;BME280;20450;49.074;9.158;2023-01-28T09:39:46;100763.94;;;3.32;82.83
34177;BME280;20450;49.074;9.158;2023-01-28T09:42:35;100763.53;;;3.18;82.79
34177;BME280;20450;49.074;9.158;2023-01-28T09:45:16;100762.28;;;3.12;83.45
34177;BME280;20450;49.074;9.158;2023-01-28T09:47:50;100763.13;;;3.22;82.68
34177;BME280;20450;49.074;9.158;2023-01-28T09:50:24;100762.94;;;3.33;82.91
34177;BME280;20450;49.074;9.158;2023-01-28T09:53:02;100767.88;;;3.38;82.41
34177;BME280;20450;49.074;9.158;2023-01-28T09:55:35;100769.28;;;3.42;82.90
34177;BME280;20450;49.074;9.158;2023-01-28T09:58:06;100772.38;;;3.37;85.75
34177;BME280;20450;49.074;9.158;2023-01-28T10:00:44;100770.28;;;3.31;82.79
34177;BME280;20450;49.074;9.158;2023-01-28T10:03:37;100768.72;;;3.10;83.48
34177;BME280;20450;49.074;9.158;2023-01-28T10:06:21;100771.97;;;3.13;83.41
34177;BME280;20450;49.074;9.158;2023-01-28T10:09:15;100768.19;;;3.25;83.28
34177;BME280;20450;49.074;9.158;2023-01-28T10:12:04;100771.38;;;3.29;83.51
34177;BME280;20450;49.074;9.158;2023-01-28T10:15:04;100768.72;;;3.29;83.62
34177;BME280;20450;49.074;9.158;2023-01-28T10:17:49;100761.59;;;3.20;83.74
34177;BME280;20450;49.074;9.158;2023-01-28T10:20:43;100766.06;;;3.10;84.32
34177;BME280;20450;49.074;9.158;2023-01-28T10:23:19;100766.22;;;3.18;84.62
34177;BME280;20450;49.074;9.158;2023-01-28T10:25:49;100763.81;;;3.05;85.75
34177;BME280;20450;49.074;9.158;2023-01-28T10:28:19;100760.19;;;3.06;85.17
34177;BME280;20450;49.074;9.158;2023-01-28T10:30:50;100751.03;;;3.09;85.33
34177;BME280;20450;49.074;9.158;2023-01-28T10:33:27;100759.75;;;3.11;84.76
34177;BME280;20450;49.074;9.158;2023-01-28T10:36:01;100755.25;;;3.11;84.92
34177;BME280;20450;49.074;9.158;2023-01-28T10:38:29;100757.63;;;2.95;85.23
34177;BME280;20450;49.074;9.158;2023-01-28T10:41:00;100763.53;;;2.99;85.44
34177;BME280;20450;49.074;9.158;2023-01-28T10:43:31;100766.91;;;2.91;85.73
34177;BME280;20450;49.074;9.158;2023-01-28T10:46:03;100761.00;;;2.97;86.00
34177;BME280;20450;49.074;9.158;2023-01-28T10:48:39;100762.41;;;3.01;85.97
34177;BME280;20450;49.074;9.158;2023-01-28T10:51:11;100766.91;;;3.10;86.16
34177;BME280;20450;49.074;9.158;2023-01-28T10:53:40;100762.97;;;3.14;86.00
34177;BME280;20450;49.074;9.158;2023-01-28T10:56:12;100764.53;;;3.17;85.29
34177;BME280;20450;49.074;9.158;2023-01-28T10:58:55;100762.41;;;3.20;85.48
34177;BME280;20450;49.074;9.158;2023-01-28T11:01:24;100769.44;;;3.21;85.22
34177;BME280;20450;49.074;9.158;2023-01-28T11:04:05;100772.09;;;3.31;84.82
34177;BME280;20450;49.074;9.158;2023-01-28T11:06:40;100769.84;;;3.36;84.75
34177;BME280;20450;49.074;9.158;2023-01-28T11:09:20;100767.34;;;3.34;83.67
34177;BME280;20450;49.074;9.158;2023-01-28T11:11:47;100764.25;;;3.39;84.10
34177;BME280;20450;49.074;9.158;2023-01-28T11:14:19;100768.72;;;3.38;83.97
34177;BME280;20450;49.074;9.158;2023-01-28T11:16:49;100763.94;;;3.42;84.16
34177;BME280;20450;49.074;9.158;2023-01-28T11:19:22;100761.69;;;3.47;83.23
34177;BME280;20450;49.074;9.158;2023-01-28T11:21:55;100756.91;;;3.50;83.33
34177;BME280;20450;49.074;9.158;2023-01-28T11:24:27;100773.75;;;3.60;83.64
34177;BME280;20450;49.074;9.158;2023-01-28T11:26:58;100767.59;;;3.60;83.83
34177;BME280;20450;49.074;9.158;2023-01-28T11:29:38;100773.47;;;3.63;83.37
34177;BME280;20450;49.074;9.158;2023-01-28T11:32:16;100771.66;;;3.54;83.43
34177;BME280;20450;49.074;9.158;2023-01-28T11:34:50;100775.03;;;3.56;83.41
34177;BME280;20450;49.074;9.158;2023-01-28T11:37:21;100767.88;;;3.47;83.45
34177;BME280;20450;49.074;9.158;2023-01-28T11:40:00;100770.53;;;3.47;83.17
34177;BME280;20450;49.074;9.158;2023-01-28T11:42:40;100764.91;;;3.50;83.01
34177;BME280;20450;49.074;9.158;2023-01-28T11:45:11;100763.09;;;3.51;82.50
34177;BME280;20450;49.074;9.158;2023-01-28T11:47:52;100774.75;;;3.50;81.60
34177;BME280;20450;49.074;9.158;2023-01-28T11:50:38;100776.59;;;3.49;82.09
34177;BME280;20450;49.074;9.158;2023-01-28T11:53:22;100774.34;;;3.35;81.68
34177;BME280;20450;49.074;9.158;2023-01-28T11:56:22;100776.19;;;3.25;81.45
34177;BME280;20450;49.074;9.158;2023-01-28T11:59:09;100769.31;;;3.23;80.76
34177;BME280;20450;49.074;9.158;2023-01-28T12:01:53;100774.50;;;3.24;80.29
34177;BME280;20450;49.074;9.158;2023-01-28T12:04:42;100777.84;;;2.98;80.84
34177;BME280;20450;49.074;9.158;2023-01-28T12:07:36;100783.31;;;2.96;81.50
34177;BME280;20450;49.074;9.158;2023-01-28T12:10:18;100780.81;;;3.04;80.54
34177;BME280;20450;49.074;9.158;2023-01-28T12:13:06;100772.25;;;3.10;79.99
34177;BME280;20450;49.074;9.158;2023-01-28T12:15:57;100772.97;;;3.12;80.08
34177;BME280;20450;49.074;9.158;2023-01-28T12:18:59;100770.41;;;3.20;80.17
34177;BME280;20450;49.074;9.158;2023-01-28T12:21:56;100777.19;;;3.24;79.37
34177;BME280;20450;49.074;9.158;2023-01-28T12:24:42;100784.47;;;3.32;80.04
34177;BME280;20450;49.074;9.158;2023-01-28T12:27:33;100772.09;;;3.12;79.51
34177;BME280;20450;49.074;9.158;2023-01-28T12:30:21;100781.25;;;3.09;80.48
34177;BME280;20450;49.074;9.158;2023-01-28T12:33:14;100765.63;;;3.14;79.53
34177;BME280;20450;49.074;9.158;2023-01-28T12:36:07;100775.50;;;3.14;78.98
34177;BME280;20450;49.074;9.158;2023-01-28T12:38:50;100764.81;;;3.04;79.91
34177;BME280;20450;49.074;9.158;2023-01-28T12:41:30;100755.09;;;3.13;78.28
34177;BME280;20450;49.074;9.158;2023-01-28T12:44:02;100757.63;;;3.33;79.79
34177;BME280;20450;49.074;9.158;2023-01-28T12:46:39;100747.06;;;3.41;78.50
34177;BME280;20450;49.074;9.158;2023-01-28T12:49:15;100750.16;;;3.37;78.85
34177;BME280;20450;49.074;9.158;2023-01-28T12:51:56;100747.63;;;3.54;79.56
34177;BME280;20450;49.074;9.158;2023-01-28T12:54:33;100749.59;;;3.33;77.83
34177;BME280;20450;49.074;9.158;2023-01-28T12:57:08;100752.00;;;3.46;77.43
34177;BME280;20450;49.074;9.158;2023-01-28T12:59:45;100747.66;;;3.35;78.52
34177;BME280;20450;49.074;9.158;2023-01-28T13:02:24;100740.50;;;3.36;77.34
34177;BME280;20450;49.074;9.158;2023-01-28T13:05:03;100748.75;;;3.42;77.70
34177;BME280;20450;49.074;9.158;2023-01-28T13:07:38;100747.91;;;3.51;77.21
34177;BME280;20450;49.074;9.158;2023-01-28T13:10:25;100754.38;;;3.49;76.79
34177;BME280;20450;49.074;9.158;2023-01-28T13:12:56;100746.50;;;3.47;76.67
34177;BME280;20450;49.074;9.158;2023-01-28T13:15:24;100747.78;;;3.43;76.67
34177;BME280;20450;49.074;9.158;2023-01-28T13:17:57;100754.66;;;3.55;76.85
34177;BME280;20450;49.074;9.158;2023-01-28T13:20:30;100754.22;;;3.41;76.01
34177;BME280;20450;49.074;9.158;2023-01-28T13:23:05;100746.41;;;3.30;76.20
34177;BME280;20450;49.074;9.158;2023-01-28T13:25:49;100757.91;;;3.21;75.97
34177;BME280;20450;49.074;9.158;2023-01-28T13:28:26;100759.16;;;3.26;75.72
34177;BME280;20450;49.074;9.158;2023-01-28T13:31:03;100753.56;;;3.29;76.60